createdAt,value
2019-04-06T00:02:23.788Z,94.80
2019-04-06T00:04:52.852Z,94.80
2019-04-06T00:07:21.880Z,94.70
2019-04-06T00:09:50.946Z,94.80
2019-04-06T00:12:20.067Z,94.80
2019-04-06T00:14:49.185Z,94.80
2019-04-06T00:17:18.256Z,94.80
2019-04-06T00:19:47.343Z,94.90
2019-04-06T00:22:15.797Z,94.80
2019-04-06T00:24:44.969Z,94.90
2019-04-06T00:27:13.461Z,95.00
2019-04-06T00:29:42.520Z,95.00
2019-04-06T00:32:16.193Z,95.10
2019-04-06T00:34:45.279Z,95.00
2019-04-06T00:37:14.390Z,95.00
2019-04-06T00:39:43.447Z,95.00
2019-04-06T00:42:12.536Z,95.00
2019-04-06T00:44:41.073Z,95.00
2019-04-06T00:47:10.189Z,95.00
2019-04-06T00:49:39.261Z,95.10
2019-04-06T00:52:08.394Z,95.10
2019-04-06T00:54:37.445Z,95.10
2019-04-06T00:57:06.036Z,95.20
2019-04-06T00:59:35.075Z,95.10
2019-04-06T01:02:04.943Z,95.20
2019-04-06T01:04:34.012Z,95.30
2019-04-06T01:07:03.155Z,95.40
2019-04-06T01:09:32.311Z,95.30
2019-04-06T01:12:01.388Z,95.30
2019-04-06T01:14:29.935Z,95.30
2019-04-06T01:16:59.034Z,95.30
2019-04-06T01:19:28.092Z,95.50
2019-04-06T01:21:57.283Z,95.50
2019-04-06T01:24:25.745Z,95.60
2019-04-06T01:26:54.384Z,95.70
2019-04-06T01:29:23.449Z,95.70
2019-04-06T01:31:51.996Z,95.80
2019-04-06T01:34:20.462Z,95.90
2019-04-06T01:36:49.528Z,95.90
2019-04-06T01:39:18.092Z,96.10
2019-04-06T01:41:47.233Z,96.20
2019-04-06T01:44:15.689Z,96.30
2019-04-06T01:46:44.799Z,96.60
2019-04-06T01:49:13.277Z,96.30
2019-04-06T01:51:41.768Z,96.40
2019-04-06T01:54:10.244Z,96.30
2019-04-06T01:56:38.738Z,96.40
2019-04-06T01:59:07.777Z,96.70
2019-04-06T02:01:43.764Z,96.50
2019-04-06T02:04:12.240Z,96.50
2019-04-06T02:06:40.705Z,96.50
2019-04-06T02:09:09.177Z,96.50
2019-04-06T02:11:37.729Z,96.50
2019-04-06T02:14:06.194Z,96.50
2019-04-06T02:16:34.666Z,96.60
2019-04-06T02:19:03.265Z,96.60
2019-04-06T02:21:31.814Z,96.60
2019-04-06T02:24:00.869Z,96.60
2019-04-06T02:26:31.207Z,96.60
2019-04-06T02:29:00.570Z,96.70
2019-04-06T02:31:36.744Z,96.70
2019-04-06T02:34:21.867Z,96.70
2019-04-06T02:37:07.967Z,96.70
2019-04-06T02:39:56.246Z,96.70
2019-04-06T02:42:28.841Z,96.70
2019-04-06T02:44:57.330Z,96.80
2019-04-06T02:47:25.824Z,96.80
2019-04-06T02:49:54.326Z,96.80
2019-04-06T02:52:22.840Z,96.90
2019-04-06T02:54:51.331Z,96.80
2019-04-06T02:57:19.870Z,96.70
2019-04-06T02:59:48.362Z,96.70
2019-04-06T03:02:16.907Z,96.70
2019-04-06T03:04:45.382Z,96.60
2019-04-06T03:07:13.855Z,96.60
2019-04-06T03:09:42.408Z,96.60
2019-04-06T03:12:10.953Z,96.70
2019-04-06T03:14:39.505Z,96.70
2019-04-06T03:17:08.114Z,96.70
2019-04-06T03:19:37.072Z,96.60
2019-04-06T03:22:05.778Z,96.60
2019-04-06T03:24:34.260Z,96.60
2019-04-06T03:27:03.264Z,96.50
2019-04-06T03:29:31.872Z,96.50
2019-04-06T03:32:00.483Z,96.50
2019-04-06T03:34:29.120Z,96.40
2019-04-06T03:36:57.693Z,96.40
2019-04-06T03:39:26.181Z,96.50
2019-04-06T03:41:54.654Z,96.30
2019-04-06T03:44:23.265Z,96.40
2019-04-06T03:46:51.890Z,96.40
2019-04-06T03:49:20.376Z,96.30
2019-04-06T03:51:48.847Z,96.40
2019-04-06T03:54:17.575Z,96.40
2019-04-06T03:56:46.768Z,96.30
2019-04-06T03:59:15.241Z,96.30
2019-04-06T04:01:43.713Z,96.20
2019-04-06T04:04:12.187Z,96.10
2019-04-06T04:06:40.681Z,96.00
2019-04-06T04:09:09.158Z,96.00
2019-04-06T04:11:37.631Z,95.90
2019-04-06T04:14:06.203Z,95.90
2019-04-06T04:16:34.712Z,95.90
2019-04-06T04:19:03.511Z,95.90
2019-04-06T04:21:32.127Z,95.80
2019-04-06T04:24:00.839Z,95.80
2019-04-06T04:26:29.379Z,95.60
2019-04-06T04:28:57.915Z,95.90
2019-04-06T04:31:26.386Z,95.90
2019-04-06T04:33:55.444Z,95.80
2019-04-06T04:36:24.483Z,95.60
2019-04-06T04:38:52.974Z,95.50
2019-04-06T04:41:22.008Z,95.60
2019-04-06T04:43:50.507Z,95.50
2019-04-06T04:46:18.986Z,95.60
2019-04-06T04:48:47.466Z,95.70
2019-04-06T04:51:15.936Z,95.60
2019-04-06T04:53:44.428Z,95.60
2019-04-06T04:56:12.882Z,95.60
2019-04-06T04:58:42.167Z,95.60
2019-04-06T05:01:10.784Z,95.50
2019-04-06T05:03:39.267Z,95.30
2019-04-06T05:06:07.804Z,95.50
2019-04-06T05:08:36.838Z,95.20
2019-04-06T05:11:05.523Z,95.20
2019-04-06T05:13:34.580Z,95.30
2019-04-06T05:16:09.259Z,95.30
2019-04-06T05:18:39.234Z,95.30
2019-04-06T05:21:08.910Z,95.20
2019-04-06T05:23:37.956Z,95.20
2019-04-06T05:26:07.485Z,95.00
2019-04-06T05:28:36.604Z,94.90
2019-04-06T05:31:06.122Z,94.70
2019-04-06T05:33:35.162Z,94.60
2019-04-06T05:36:04.452Z,94.70
2019-04-06T05:38:33.578Z,94.60
2019-04-06T05:41:02.670Z,94.50
2019-04-06T05:43:31.868Z,94.40
2019-04-06T05:46:01.444Z,94.30
2019-04-06T05:48:30.644Z,94.30
2019-04-06T05:50:59.703Z,94.30
2019-04-06T05:53:28.759Z,94.30
2019-04-06T05:55:57.827Z,94.20
2019-04-06T05:58:26.877Z,94.30
2019-04-06T06:00:55.955Z,94.20
2019-04-06T06:03:25.019Z,93.90
2019-04-06T06:05:54.161Z,93.90
2019-04-06T06:08:23.238Z,93.90
2019-04-06T06:10:52.347Z,94.00
2019-04-06T06:13:21.541Z,93.90
2019-04-06T06:15:50.695Z,93.90
2019-04-06T06:18:27.390Z,93.90
2019-04-06T06:20:52.363Z,93.80
2019-04-06T06:23:21.460Z,93.60
2019-04-06T06:25:50.518Z,93.50
2019-04-06T06:28:19.595Z,93.40
2019-04-06T06:30:48.914Z,93.20
2019-04-06T06:33:18.016Z,93.20
2019-04-06T06:35:47.068Z,93.30
2019-04-06T06:38:16.209Z,93.20
2019-04-06T06:40:45.270Z,93.00
2019-04-06T06:43:14.303Z,92.90
2019-04-06T06:45:43.621Z,92.90
2019-04-06T06:48:12.704Z,92.80
2019-04-06T06:50:42.011Z,92.70
2019-04-06T06:53:11.280Z,92.50
2019-04-06T06:55:40.447Z,92.40
2019-04-06T06:58:09.510Z,92.20
2019-04-06T07:00:38.563Z,92.30
2019-04-06T07:03:07.675Z,91.70
2019-04-06T07:05:36.818Z,92.20
2019-04-06T07:08:06.057Z,92.30
2019-04-06T07:10:35.210Z,92.00
2019-04-06T07:13:04.282Z,91.90
2019-04-06T07:15:33.404Z,91.70
2019-04-06T07:18:02.458Z,91.50
2019-04-06T07:20:31.573Z,91.40
2019-04-06T07:23:00.638Z,91.30
2019-04-06T07:25:29.776Z,91.20
2019-04-06T07:27:58.952Z,90.90
2019-04-06T07:30:28.198Z,91.10
2019-04-06T07:32:57.245Z,90.80
2019-04-06T07:35:26.421Z,90.70
2019-04-06T07:37:55.511Z,90.40
2019-04-06T07:40:24.568Z,90.20
2019-04-06T07:42:53.683Z,90.00
2019-04-06T07:45:22.768Z,90.00
2019-04-06T07:47:51.797Z,89.40
2019-04-06T07:50:21.025Z,89.70
2019-04-06T07:52:50.144Z,89.50
2019-04-06T07:55:19.209Z,88.60
2019-04-06T07:57:48.252Z,88.80
2019-04-06T08:00:17.645Z,88.60
2019-04-06T08:02:46.681Z,88.00
2019-04-06T08:05:15.754Z,88.20
2019-04-06T08:07:44.853Z,88.50
2019-04-06T08:10:14.078Z,87.60
2019-04-06T08:12:43.175Z,87.10
2019-04-06T08:15:12.305Z,86.80
2019-04-06T08:17:41.339Z,84.90
2019-04-06T08:20:10.605Z,86.20
2019-04-06T08:22:39.791Z,85.90
2019-04-06T08:25:09.087Z,85.10
2019-04-06T08:27:38.395Z,84.90
2019-04-06T08:30:12.284Z,84.00
2019-04-06T08:32:41.499Z,84.00
2019-04-06T08:35:12.272Z,83.90
2019-04-06T08:37:41.346Z,84.10
2019-04-06T08:40:11.111Z,84.30
2019-04-06T08:42:40.267Z,85.80
2019-04-06T08:45:10.210Z,86.80
2019-04-06T08:47:39.407Z,87.00
2019-04-06T08:50:08.784Z,88.10
2019-04-06T08:52:37.870Z,87.50
2019-04-06T08:55:07.268Z,87.10
2019-04-06T08:57:36.308Z,87.70
2019-04-06T09:00:08.283Z,87.70
2019-04-06T09:02:37.344Z,87.50
2019-04-06T09:05:08.232Z,87.50
2019-04-06T09:07:37.279Z,87.30
2019-04-06T09:10:06.901Z,87.10
2019-04-06T09:12:35.936Z,87.00
2019-04-06T09:15:08.014Z,87.00
2019-04-06T09:17:37.094Z,86.10
2019-04-06T09:20:08.297Z,87.00
2019-04-06T09:22:37.383Z,87.30
2019-04-06T09:25:07.034Z,87.20
2019-04-06T09:27:36.060Z,87.10
2019-04-06T09:30:07.100Z,87.00
2019-04-06T09:32:36.269Z,87.00
2019-04-06T09:35:06.167Z,86.60
2019-04-06T09:37:35.550Z,86.80
2019-04-06T09:40:06.566Z,86.70
2019-04-06T09:42:35.610Z,86.40
2019-04-06T09:45:21.390Z,86.10
2019-04-06T09:47:58.165Z,86.40
2019-04-06T09:50:34.362Z,86.10
2019-04-06T09:53:21.193Z,85.60
2019-04-06T09:55:51.980Z,84.90
2019-04-06T09:58:25.752Z,85.40
2019-04-06T10:00:59.320Z,85.40
2019-04-06T10:03:32.824Z,85.20
2019-04-06T10:06:03.555Z,85.20
2019-04-06T10:08:37.393Z,84.70
2019-04-06T10:11:25.995Z,84.30
2019-04-06T10:13:59.791Z,84.30
2019-04-06T10:16:30.477Z,84.20
2019-04-06T10:19:01.178Z,84.00
2019-04-06T10:21:48.081Z,83.40
2019-04-06T10:24:18.781Z,83.40
2019-04-06T10:27:01.813Z,82.90
2019-04-06T10:29:32.965Z,83.20
2019-04-06T10:32:03.743Z,83.00
2019-04-06T10:34:40.576Z,83.00
2019-04-06T10:37:13.855Z,82.90
2019-04-06T10:39:47.352Z,82.20
2019-04-06T10:42:30.062Z,81.70
2019-04-06T10:45:03.762Z,80.40
2019-04-06T10:47:43.821Z,80.00
2019-04-06T10:50:31.172Z,79.10
2019-04-06T10:53:13.934Z,79.00
2019-04-06T10:55:44.666Z,79.00
2019-04-06T10:58:18.625Z,78.80
2019-04-06T11:01:04.718Z,78.30
2019-04-06T11:03:50.587Z,78.50
2019-04-06T11:06:27.293Z,78.30
2019-04-06T11:09:04.279Z,78.50
2019-04-06T11:11:35.610Z,78.30
2019-04-06T11:14:06.636Z,77.20
2019-04-06T11:16:43.396Z,75.00
2019-04-06T11:19:14.082Z,74.10
2019-04-06T11:22:03.036Z,74.00
2019-04-06T11:24:42.459Z,74.30
2019-04-06T11:27:19.491Z,73.60
2019-04-06T11:30:11.269Z,73.70
2019-04-06T11:32:37.928Z,73.00
2019-04-06T11:35:18.280Z,72.30
2019-04-06T11:37:58.294Z,72.00
2019-04-06T11:40:28.974Z,72.00
2019-04-06T11:43:05.710Z,71.80
2019-04-06T11:45:51.542Z,71.00
2019-04-06T11:48:31.556Z,70.20
2019-04-06T11:51:18.856Z,70.20
2019-04-06T11:53:58.392Z,69.30
2019-04-06T11:56:29.305Z,69.80
2019-04-06T11:59:16.831Z,69.50
2019-04-06T12:01:53.558Z,70.70
2019-04-06T12:04:30.524Z,70.90
2019-04-06T12:07:10.461Z,70.90
2019-04-06T12:09:43.899Z,70.00
2019-04-06T12:12:29.989Z,70.40
2019-04-06T12:15:09.489Z,69.70
2019-04-06T12:17:58.327Z,68.60
2019-04-06T12:20:37.615Z,68.20
2019-04-06T12:23:24.548Z,68.20
2019-04-06T12:25:55.258Z,68.00
2019-04-06T12:28:28.782Z,66.70
2019-04-06T12:31:05.852Z,66.90
2019-04-06T12:33:36.543Z,66.70
2019-04-06T12:36:13.594Z,66.90
2019-04-06T12:38:44.620Z,66.70
2019-04-06T12:41:30.661Z,66.90
2019-04-06T12:44:13.527Z,66.90
2019-04-06T12:47:00.567Z,67.00
2019-04-06T12:49:46.363Z,66.50
2019-04-06T12:52:17.077Z,66.30
2019-04-06T12:55:02.883Z,65.30
2019-04-06T12:57:36.291Z,64.90
2019-04-06T13:00:14.686Z,64.00
2019-04-06T13:03:01.613Z,64.30
2019-04-06T13:05:50.415Z,64.50
2019-04-06T13:08:27.333Z,62.60
2019-04-06T13:11:19.067Z,62.80
2019-04-06T13:13:48.708Z,63.00
2019-04-06T13:16:28.544Z,61.60
2019-04-06T13:19:04.932Z,62.20
2019-04-06T13:21:47.817Z,61.80
2019-04-06T13:24:24.630Z,59.10
2019-04-06T13:26:57.933Z,58.70
2019-04-06T13:29:34.540Z,58.20
2019-04-06T13:32:20.411Z,58.20
2019-04-06T13:35:03.470Z,57.80
2019-04-06T13:37:36.806Z,56.40
2019-04-06T13:40:25.168Z,54.60
2019-04-06T13:43:12.013Z,54.40
2019-04-06T13:45:52.006Z,53.60
2019-04-06T13:48:39.498Z,54.00
2019-04-06T13:51:10.584Z,52.80
2019-04-06T13:53:53.637Z,51.10
2019-04-06T13:56:36.473Z,50.80
2019-04-06T13:59:23.634Z,51.30
2019-04-06T14:02:03.765Z,51.50
2019-04-06T14:04:43.425Z,50.30
2019-04-06T14:07:17.015Z,49.70
2019-04-06T14:09:47.775Z,48.30
2019-04-06T14:12:18.511Z,47.60
2019-04-06T14:15:04.444Z,47.70
2019-04-06T14:17:41.193Z,46.60
2019-04-06T14:20:28.546Z,45.30
2019-04-06T14:23:05.156Z,44.10
2019-04-06T14:25:41.541Z,44.10
2019-04-06T14:28:12.247Z,44.40
2019-04-06T14:30:54.794Z,43.50
2019-04-06T14:33:41.878Z,43.20
2019-04-06T14:36:24.589Z,42.50
2019-04-06T14:38:55.204Z,43.10
2019-04-06T14:41:41.152Z,41.80
2019-04-06T14:44:27.682Z,41.10
2019-04-06T14:46:58.369Z,42.10
2019-04-06T14:49:34.524Z,41.80
2019-04-06T14:52:07.817Z,41.70
2019-04-06T14:54:38.212Z,41.60
2019-04-06T14:57:08.769Z,40.70
2019-04-06T14:59:39.265Z,40.20
2019-04-06T15:02:09.670Z,40.50
2019-04-06T15:04:52.588Z,40.80
2019-04-06T15:07:23.016Z,42.20
2019-04-06T15:09:56.448Z,42.20
2019-04-06T15:12:29.462Z,40.60
2019-04-06T15:15:05.470Z,40.60
2019-04-06T15:17:35.894Z,40.50
2019-04-06T15:20:23.016Z,40.50
2019-04-06T15:22:59.452Z,40.00
2019-04-06T15:25:38.654Z,39.30
2019-04-06T15:28:27.362Z,38.60
2019-04-06T15:31:00.428Z,38.60
2019-04-06T15:33:49.134Z,38.40
2019-04-06T15:36:20.070Z,38.00
2019-04-06T15:38:59.516Z,38.00
2019-04-06T15:41:32.508Z,37.90
2019-04-06T15:44:02.918Z,38.60
2019-04-06T15:46:45.313Z,38.90
2019-04-06T15:49:24.507Z,39.10
2019-04-06T15:51:54.964Z,39.00
2019-04-06T15:54:25.374Z,38.70
2019-04-06T15:56:56.083Z,37.40
2019-04-06T15:59:29.246Z,37.80
2019-04-06T16:02:05.737Z,37.60
2019-04-06T16:04:54.283Z,38.80
2019-04-06T16:07:31.093Z,38.40
2019-04-06T16:09:56.822Z,39.10
2019-04-06T16:12:43.529Z,40.20
2019-04-06T16:15:16.915Z,40.10
2019-04-06T16:17:53.271Z,40.60
2019-04-06T16:20:26.437Z,41.10
2019-04-06T16:23:06.258Z,41.70
2019-04-06T16:25:42.982Z,41.00
2019-04-06T16:28:13.811Z,41.40
2019-04-06T16:30:44.780Z,41.80
2019-04-06T16:33:15.379Z,42.30
2019-04-06T16:35:55.117Z,42.70
2019-04-06T16:38:38.014Z,43.10
2019-04-06T16:41:08.793Z,43.00
2019-04-06T16:43:39.892Z,42.90
2019-04-06T16:46:10.642Z,43.50
2019-04-06T16:48:58.280Z,43.90
2019-04-06T16:51:40.934Z,44.20
2019-04-06T16:54:14.633Z,44.60
2019-04-06T16:56:45.348Z,44.40
2019-04-06T16:59:16.495Z,44.70
2019-04-06T17:01:49.804Z,45.00
2019-04-06T17:04:20.504Z,44.90
2019-04-06T17:07:07.594Z,45.00
2019-04-06T17:09:48.003Z,44.90
2019-04-06T17:12:34.073Z,45.30
2019-04-06T17:15:20.515Z,45.60
2019-04-06T17:17:51.370Z,45.90
2019-04-06T17:20:28.548Z,45.70
2019-04-06T17:22:59.399Z,45.80
2019-04-06T17:25:30.125Z,46.10
2019-04-06T17:28:17.022Z,46.00
2019-04-06T17:30:50.852Z,45.80
2019-04-06T17:33:21.655Z,45.90
2019-04-06T17:36:07.707Z,46.20
2019-04-06T17:38:54.746Z,46.60
2019-04-06T17:41:42.200Z,47.10
2019-04-06T17:44:22.303Z,47.60
2019-04-06T17:46:56.085Z,47.80
2019-04-06T17:49:42.963Z,48.10
2019-04-06T17:52:25.641Z,48.30
2019-04-06T17:55:12.632Z,48.20
2019-04-06T17:57:49.155Z,48.60
2019-04-06T18:00:29.009Z,48.90
2019-04-06T18:03:18.216Z,49.20
2019-04-06T18:05:54.786Z,49.50
2019-04-06T18:08:42.100Z,49.50
2019-04-06T18:11:12.825Z,49.70
2019-04-06T18:13:51.110Z,50.00
2019-04-06T18:16:23.140Z,50.40
2019-04-06T18:18:55.873Z,50.80
2019-04-06T18:21:24.937Z,50.90
2019-04-06T18:23:54.303Z,51.00
2019-04-06T18:26:23.475Z,51.20
2019-04-06T18:28:52.740Z,51.50
2019-04-06T18:31:23.768Z,51.60
2019-04-06T18:33:52.841Z,51.80
2019-04-06T18:36:23.710Z,52.10
2019-04-06T18:38:54.934Z,52.40
2019-04-06T18:41:24.522Z,52.70
2019-04-06T18:43:53.864Z,52.90
2019-04-06T18:46:23.052Z,53.10
2019-04-06T18:48:52.176Z,53.40
2019-04-06T18:51:21.256Z,53.60
2019-04-06T18:53:50.366Z,53.90
2019-04-06T18:56:19.967Z,54.00
2019-04-06T18:58:49.316Z,54.10
2019-04-06T19:01:18.405Z,54.30
2019-04-06T19:03:47.539Z,54.40
2019-04-06T19:06:19.007Z,54.60
2019-04-06T19:08:48.141Z,54.90
2019-04-06T19:11:17.380Z,55.20
2019-04-06T19:13:46.525Z,55.60
2019-04-06T19:16:17.330Z,55.80
2019-04-06T19:18:46.674Z,56.00
2019-04-06T19:21:16.383Z,56.60
2019-04-06T19:23:45.595Z,56.70
2019-04-06T19:26:15.058Z,57.10
2019-04-06T19:28:44.598Z,57.40
2019-04-06T19:31:13.939Z,57.80
2019-04-06T19:33:43.156Z,58.30
2019-04-06T19:36:12.441Z,58.60
2019-04-06T19:38:41.583Z,59.30
2019-04-06T19:41:10.653Z,59.40
2019-04-06T19:43:40.008Z,59.60
2019-04-06T19:46:09.157Z,60.10
2019-04-06T19:48:40.503Z,60.60
2019-04-06T19:51:09.071Z,61.10
2019-04-06T19:53:38.137Z,61.70
2019-04-06T19:56:07.706Z,62.10
2019-04-06T19:58:37.089Z,61.80
2019-04-06T20:01:06.823Z,62.60
2019-04-06T20:03:38.548Z,62.40
2019-04-06T20:06:06.844Z,62.80
2019-04-06T20:08:36.259Z,64.00
2019-04-06T20:11:05.520Z,64.00
2019-04-06T20:13:34.615Z,64.50
2019-04-06T20:16:04.633Z,64.80
2019-04-06T20:18:33.821Z,65.00
2019-04-06T20:21:03.426Z,65.50
2019-04-06T20:23:32.631Z,65.80
2019-04-06T20:26:01.689Z,66.30
2019-04-06T20:28:30.995Z,66.10
2019-04-06T20:31:00.129Z,66.10
2019-04-06T20:33:29.537Z,66.10
2019-04-06T20:35:58.769Z,66.40
2019-04-06T20:38:27.897Z,66.80
2019-04-06T20:40:57.214Z,66.90
2019-04-06T20:43:27.553Z,67.10
2019-04-06T20:45:56.749Z,67.20
2019-04-06T20:48:25.830Z,67.20
2019-04-06T20:50:55.119Z,67.50
2019-04-06T20:53:24.258Z,67.70
2019-04-06T20:55:53.451Z,67.90
2019-04-06T20:58:22.518Z,68.00
2019-04-06T21:00:51.596Z,68.80
2019-04-06T21:03:20.671Z,69.20
2019-04-06T21:05:49.750Z,69.50
2019-04-06T21:08:18.855Z,69.40
2019-04-06T21:10:48.518Z,69.40
2019-04-06T21:13:17.694Z,69.50
2019-04-06T21:15:46.834Z,69.50
2019-04-06T21:18:15.886Z,69.70
2019-04-06T21:20:45.294Z,69.70
2019-04-06T21:23:15.133Z,70.00
2019-04-06T21:25:45.225Z,70.40
2019-04-06T21:28:14.485Z,70.90
2019-04-06T21:30:43.586Z,71.00
2019-04-06T21:33:13.123Z,71.20
2019-04-06T21:35:42.467Z,71.40
2019-04-06T21:38:12.177Z,71.50
2019-04-06T21:40:41.348Z,71.40
2019-04-06T21:43:10.456Z,71.90
2019-04-06T21:45:39.589Z,72.10
2019-04-06T21:48:08.646Z,72.50
2019-04-06T21:50:37.714Z,72.70
2019-04-06T21:53:07.114Z,72.70
2019-04-06T21:55:36.849Z,73.00
2019-04-06T21:58:06.261Z,72.70
2019-04-06T22:00:55.728Z,73.10
2019-04-06T22:03:25.025Z,73.20
2019-04-06T22:05:54.248Z,73.40
2019-04-06T22:08:23.382Z,73.50
2019-04-06T22:10:52.864Z,73.70
2019-04-06T22:13:22.409Z,73.90
2019-04-06T22:15:51.788Z,73.90
2019-04-06T22:18:21.876Z,74.50
2019-04-06T22:20:51.294Z,74.40
2019-04-06T22:23:20.871Z,74.50
2019-04-06T22:25:50.521Z,74.60
2019-04-06T22:28:19.668Z,74.80
2019-04-06T22:30:48.738Z,74.70
2019-04-06T22:33:17.791Z,74.90
2019-04-06T22:35:47.530Z,75.50
2019-04-06T22:38:17.108Z,75.40
2019-04-06T22:40:46.442Z,75.50
2019-04-06T22:43:15.719Z,75.60
2019-04-06T22:45:45.389Z,75.80
2019-04-06T22:48:15.365Z,76.10
2019-04-06T22:50:44.406Z,76.50
2019-04-06T22:53:13.478Z,76.50
2019-04-06T22:55:42.976Z,76.60
2019-04-06T22:58:12.172Z,77.00
2019-04-06T23:00:48.950Z,77.00
2019-04-06T23:03:36.669Z,77.30
2019-04-06T23:06:14.244Z,77.30
2019-04-06T23:08:43.825Z,77.60
2019-04-06T23:11:12.982Z,77.60
2019-04-06T23:13:42.115Z,77.80
2019-04-06T23:16:11.409Z,78.10
2019-04-06T23:18:41.238Z,78.30
2019-04-06T23:21:11.914Z,78.50
2019-04-06T23:23:40.977Z,78.80
2019-04-06T23:26:10.118Z,79.10
2019-04-06T23:28:39.266Z,79.30
2019-04-06T23:31:08.300Z,79.20
2019-04-06T23:33:38.011Z,79.30
2019-04-06T23:36:07.778Z,79.30
2019-04-06T23:38:37.347Z,80.60
2019-04-06T23:41:07.065Z,80.00
2019-04-06T23:43:36.141Z,80.10
2019-04-06T23:46:05.192Z,80.30
2019-04-06T23:48:34.825Z,80.60
2019-04-06T23:51:04.050Z,80.70
2019-04-06T23:53:33.186Z,81.00
2019-04-06T23:56:02.686Z,81.30
2019-04-06T23:58:32.467Z,81.50
